Time;durP1;ratioP1;P1;durP2;ratioP2;P2;SDS_P1;SDS_P2;PMS_P1;PMS_P2;Temp;Humidity;BMP_temperature;BMP_pressure;BME280_temperature;BME280_humidity;BME280_pressure;Samples;Min_cycle;Max_cycle;Signal;HPM_P1;HPM_P2
2022/10/17 00:00:45;;;;;;;21.00;14.15;;;;;;;12.14;100.00;101562.59;5011468;28;20493;-74
2022/10/17 00:03:11;;;;;;;22.52;14.93;;;;;;;12.21;100.00;101565.97;5015053;28;20461;-74
2022/10/17 00:05:45;;;;;;;20.02;14.98;;;;;;;12.18;100.00;101559.03;5011336;28;20389;-74
2022/10/17 00:08:12;;;;;;;20.17;14.77;;;;;;;12.18;100.00;101559.03;5012753;28;20038;-74
2022/10/17 00:10:38;;;;;;;20.88;14.88;;;;;;;12.21;100.00;101566.81;5010214;28;20198;-74
2022/10/17 00:13:03;;;;;;;20.85;15.13;;;;;;;12.19;100.00;101565.97;5008541;28;20034;-74
2022/10/17 00:15:29;;;;;;;20.17;14.45;;;;;;;12.19;100.00;101556.38;5010460;28;20071;-74
2022/10/17 00:17:55;;;;;;;21.55;14.55;;;;;;;12.19;100.00;101560.75;5011753;28;20121;-74
2022/10/17 00:20:20;;;;;;;19.85;14.60;;;;;;;12.15;100.00;101546.03;5015497;28;20017;-74
2022/10/17 00:22:45;;;;;;;20.27;14.23;;;;;;;12.18;100.00;101564.28;5016716;28;20497;-74
2022/10/17 00:25:11;;;;;;;21.33;15.05;;;;;;;12.19;100.00;101556.38;5011876;28;20018;-74
2022/10/17 00:27:39;;;;;;;19.00;13.70;;;;;;;12.13;100.00;101540.84;5011449;28;20894;-74
2022/10/17 00:30:05;;;;;;;19.23;13.73;;;;;;;12.08;100.00;101544.41;5011473;28;20083;-74
2022/10/17 00:32:31;;;;;;;23.25;15.45;;;;;;;12.16;100.00;101548.63;5007459;28;20037;-74
2022/10/17 00:34:57;;;;;;;22.52;15.15;;;;;;;12.07;100.00;101530.50;5010599;28;20034;-74
2022/10/17 00:37:22;;;;;;;20.88;14.35;;;;;;;12.11;100.00;101547.84;5010260;28;20034;-74
2022/10/17 00:39:48;;;;;;;19.95;15.05;;;;;;;12.07;100.00;101543.56;5010414;28;20022;-74
2022/10/17 00:42:14;;;;;;;23.92;13.93;;;;;;;12.04;100.00;101546.22;5010596;28;20038;-74
2022/10/17 00:44:39;;;;;;;20.55;14.77;;;;;;;12.06;100.00;101536.59;5007003;28;20034;-74
2022/10/17 00:47:09;;;;;;;21.37;14.20;;;;;;;12.04;100.00;101545.38;5006841;28;20038;-74
2022/10/17 00:49:37;;;;;;;23.75;16.42;;;;;;;12.10;100.00;101542.66;5010726;28;20285;-74
2022/10/17 00:52:07;;;;;;;25.52;17.08;;;;;;;12.15;100.00;101544.28;5011273;28;20060;-75
2022/10/17 00:54:42;;;;;;;23.83;16.23;;;;;;;12.09;100.00;101538.28;5010450;28;20394;-74
2022/10/17 00:57:08;;;;;;;23.75;16.13;;;;;;;12.17;100.00;101537.28;5010737;28;20030;-74
2022/10/17 00:59:36;;;;;;;26.30;16.75;;;;;;;12.22;100.00;101538.94;5010000;28;20460;-74
2022/10/17 01:02:08;;;;;;;27.35;16.65;;;;;;;12.22;100.00;101531.09;5015539;28;20029;-75
2022/10/17 01:04:36;;;;;;;28.30;18.02;;;;;;;12.31;100.00;101542.22;5008259;28;20029;-75
2022/10/17 01:07:01;;;;;;;27.48;17.48;;;;;;;12.32;100.00;101541.31;5013487;28;20049;-74
2022/10/17 01:09:27;;;;;;;28.40;17.95;;;;;;;12.31;100.00;101538.75;5016033;28;20026;-74
2022/10/17 01:12:16;;;;;;;29.70;17.75;;;;;;;12.35;100.00;101549.09;5006003;28;20045;-74
2022/10/17 01:15:19;;;;;;;30.00;18.33;;;;;;;12.40;100.00;101539.44;5010724;28;20100;-75
2022/10/17 01:18:04;;;;;;;31.65;18.73;;;;;;;12.41;100.00;101540.28;5002866;28;20042;-74
2022/10/17 01:20:49;;;;;;;33.15;19.67;;;;;;;12.42;100.00;101528.94;5010445;28;20046;-75
2022/10/17 01:23:25;;;;;;;33.47;18.83;;;;;;;12.48;100.00;101535.81;5021423;28;20060;-74
2022/10/17 01:26:24;;;;;;;32.15;19.33;;;;;;;12.49;100.00;101538.41;5012842;28;20037;-74
2022/10/17 01:29:04;;;;;;;30.95;18.70;;;;;;;12.52;100.00;101540.94;5014823;28;20044;-75
2022/10/17 01:31:39;;;;;;;34.45;19.20;;;;;;;12.53;100.00;101532.22;5012425;28;20049;-75
2022/10/17 01:34:11;;;;;;;32.97;18.80;;;;;;;12.54;100.00;101540.91;5010804;28;20413;-74
2022/10/17 01:36:50;;;;;;;30.92;18.92;;;;;;;12.56;100.00;101531.28;5010967;28;20034;-74
2022/10/17 01:39:28;;;;;;;34.13;18.58;;;;;;;12.55;100.00;101530.41;5010927;28;20022;-74
2022/10/17 01:42:15;;;;;;;28.98;19.02;;;;;;;12.55;100.00;101532.16;5011787;28;20024;-74
2022/10/17 01:44:55;;;;;;;30.90;18.40;;;;;;;12.55;100.00;101526.94;5011020;28;20393;-75
2022/10/17 01:47:27;;;;;;;28.50;17.65;;;;;;;12.54;100.00;101523.47;5004968;28;20038;-74
2022/10/17 01:49:54;;;;;;;33.67;19.20;;;;;;;12.52;100.00;101524.38;5011277;28;20075;-75
2022/10/17 01:52:28;;;;;;;33.05;19.30;;;;;;;12.54;100.00;101527.84;5014305;28;20030;-74
2022/10/17 01:54:59;;;;;;;32.53;19.30;;;;;;;12.61;100.00;101529.44;5014377;28;20030;-74
2022/10/17 01:57:48;;;;;;;33.03;20.42;;;;;;;12.53;100.00;101531.34;5014478;28;20056;-74
2022/10/17 02:00:18;;;;;;;36.90;20.13;;;;;;;12.54;100.00;101531.31;5012962;28;20041;-74
2022/10/17 02:02:46;;;;;;;32.55;19.80;;;;;;;12.50;100.00;101521.81;5007864;28;20076;-75
2022/10/17 02:05:11;;;;;;;38.20;20.25;;;;;;;12.50;100.00;101513.09;5002399;28;20050;-74
2022/10/17 02:07:40;;;;;;;40.22;20.02;;;;;;;12.49;100.00;101519.22;5014167;28;20076;-74
2022/10/17 02:10:11;;;;;;;38.08;20.05;;;;;;;12.52;100.00;101519.16;5014283;28;20025;-74
2022/10/17 02:13:00;;;;;;;39.42;19.88;;;;;;;12.49;100.00;101503.50;5012810;28;20469;-74
2022/10/17 02:16:07;;;;;;;34.85;19.08;;;;;;;12.53;100.00;101500.81;5013417;28;20022;-75
2022/10/17 02:18:43;;;;;;;30.98;18.58;;;;;;;12.48;100.00;101492.19;5004299;28;20168;-74
2022/10/17 02:21:41;;;;;;;37.55;20.02;;;;;;;12.41;100.00;101488.00;5016642;28;20036;-75
2022/10/17 02:24:19;;;;;;;35.03;19.85;;;;;;;12.55;100.00;101511.25;5008591;28;20156;-74
2022/10/17 02:27:05;;;;;;;36.40;19.95;;;;;;;12.60;100.00;101509.41;5010846;28;20034;-74
2022/10/17 02:29:36;;;;;;;38.20;20.45;;;;;;;12.64;100.00;101509.28;5009727;28;20033;-74
2022/10/17 02:32:07;;;;;;;34.53;19.63;;;;;;;12.68;100.00;101509.22;5013528;28;20041;-74
2022/10/17 02:34:41;;;;;;;38.78;20.23;;;;;;;12.71;100.00;101510.00;5008695;28;20169;-75
2022/10/17 02:37:09;;;;;;;41.50;21.25;;;;;;;12.75;100.00;101514.31;5012529;28;20024;-74
2022/10/17 02:39:38;;;;;;;40.95;21.48;;;;;;;12.79;100.00;101520.34;5013474;28;20021;-74
2022/10/17 02:42:07;;;;;;;38.63;20.40;;;;;;;12.76;100.00;101515.16;5012200;28;20825;-74
2022/10/17 02:44:34;;;;;;;40.53;20.45;;;;;;;12.79;100.00;101507.25;5013317;28;20049;-74
2022/10/17 02:47:33;;;;;;;36.50;20.27;;;;;;;12.73;100.00;101515.22;5006825;28;20109;-74
2022/10/17 02:49:58;;;;;;;37.60;21.10;;;;;;;12.73;100.00;101508.25;4980180;28;20132;-75
2022/10/17 02:52:43;;;;;;;37.72;20.63;;;;;;;12.71;100.00;101496.06;5011692;28;20029;-74
2022/10/17 02:55:17;;;;;;;34.10;19.17;;;;;;;12.71;100.00;101503.94;5011715;28;20029;-74
2022/10/17 02:57:53;;;;;;;40.78;20.60;;;;;;;12.73;100.00;101503.00;5014423;28;20034;-75
2022/10/17 03:00:20;;;;;;;37.60;20.77;;;;;;;12.72;100.00;101501.28;5012867;28;20080;-74
2022/10/17 03:02:48;;;;;;;37.10;20.10;;;;;;;12.76;100.00;101509.94;5015483;28;20055;-74
2022/10/17 03:05:19;;;;;;;41.35;21.25;;;;;;;12.74;100.00;101507.34;5008822;28;20499;-74
2022/10/17 03:07:44;;;;;;;44.35;21.70;;;;;;;12.79;100.00;101499.41;5015772;28;20030;-74
2022/10/17 03:10:09;;;;;;;36.05;20.63;;;;;;;12.81;100.00;101510.69;5012564;28;20045;-74
2022/10/17 03:12:35;;;;;;;38.08;21.05;;;;;;;12.80;100.00;101503.72;5010615;28;20405;-75
2022/10/17 03:15:01;;;;;;;40.72;21.42;;;;;;;12.82;100.00;101504.56;5012917;28;20033;-74
2022/10/17 03:17:26;;;;;;;41.03;20.90;;;;;;;12.79;100.00;101502.88;5011129;28;20116;-75
2022/10/17 03:19:51;;;;;;;44.30;21.25;;;;;;;12.82;100.00;101507.19;5012759;28;20030;-74
2022/10/17 03:22:16;;;;;;;38.60;20.58;;;;;;;12.80;100.00;101511.59;5012909;28;20037;-75
2022/10/17 03:24:42;;;;;;;41.33;20.65;;;;;;;12.78;100.00;101513.34;5011543;28;20044;-74
2022/10/17 03:27:07;;;;;;;33.88;19.55;;;;;;;12.75;100.00;101506.47;5013930;28;20136;-74
2022/10/17 03:29:32;;;;;;;39.30;20.10;;;;;;;12.73;100.00;101510.84;5012433;28;20029;-75
2022/10/17 03:31:57;;;;;;;37.30;19.98;;;;;;;12.75;100.00;101511.69;5011396;28;20465;-75
2022/10/17 03:34:23;;;;;;;43.75;20.45;;;;;;;12.72;100.00;101503.91;5011954;28;20034;-75
2022/10/17 03:36:48;;;;;;;38.97;20.73;;;;;;;12.73;100.00;101513.47;5013593;28;20429;-75
2022/10/17 03:39:13;;;;;;;35.78;20.30;;;;;;;12.64;100.00;101492.75;5012444;28;20022;-75
2022/10/17 03:41:39;;;;;;;38.80;20.77;;;;;;;12.79;100.00;101510.72;5011922;28;20030;-75
2022/10/17 03:44:04;;;;;;;38.03;20.13;;;;;;;12.77;100.00;101498.56;5012501;28;20076;-74
2022/10/17 03:46:29;;;;;;;39.75;20.13;;;;;;;12.82;100.00;101500.19;5011038;28;20053;-75
2022/10/17 03:48:54;;;;;;;42.90;20.05;;;;;;;12.86;100.00;101493.13;5012152;28;20041;-75
2022/10/17 03:51:20;;;;;;;38.72;20.40;;;;;;;12.85;100.00;101488.78;5011592;28;20046;-75
2022/10/17 03:53:45;;;;;;;41.88;20.52;;;;;;;12.86;100.00;101493.13;5011713;28;20041;-75
2022/10/17 03:56:16;;;;;;;38.83;20.15;;;;;;;12.90;100.00;101500.00;5012478;28;20421;-74
2022/10/17 03:58:43;;;;;;;47.80;21.35;;;;;;;12.94;100.00;101495.56;5012086;28;20045;-75
2022/10/17 04:01:10;;;;;;;41.67;20.73;;;;;;;12.96;100.00;101499.03;5011431;28;20033;-74
2022/10/17 04:03:36;;;;;;;38.92;20.73;;;;;;;12.98;100.00;101500.72;5011056;28;20057;-75
2022/10/17 04:06:03;;;;;;;45.55;21.27;;;;;;;13.07;100.00;101504.84;5014128;28;20029;-74
2022/10/17 04:08:29;;;;;;;46.60;21.38;;;;;;;13.10;100.00;101521.34;5010509;28;20061;-74
2022/10/17 04:11:01;;;;;;;37.95;21.08;;;;;;;13.10;100.00;101518.72;5016700;28;20053;-74
2022/10/17 04:13:27;;;;;;;39.10;20.90;;;;;;;13.18;100.00;101510.72;5011239;28;20053;-74
2022/10/17 04:15:58;;;;;;;41.47;20.25;;;;;;;13.23;100.00;101508.84;5021694;28;20044;-74
2022/10/17 04:18:23;;;;;;;41.75;20.55;;;;;;;13.27;100.00;101520.97;5012031;28;20101;-75
2022/10/17 04:20:49;;;;;;;44.75;20.95;;;;;;;13.31;100.00;101517.41;5010692;28;20817;-75
2022/10/17 04:23:15;;;;;;;44.92;21.13;;;;;;;13.34;100.00;101513.84;5021815;28;20030;-75
2022/10/17 04:25:40;;;;;;;42.50;21.27;;;;;;;13.33;100.00;101523.47;5011226;28;20542;-74
2022/10/17 04:28:05;;;;;;;39.42;21.15;;;;;;;13.34;100.00;101538.28;5011751;28;20033;-75
2022/10/17 04:30:30;;;;;;;38.92;20.48;;;;;;;13.34;100.00;101532.16;5010984;28;20018;-74
2022/10/17 04:32:56;;;;;;;37.75;20.30;;;;;;;13.35;100.00;101536.53;5010626;28;20033;-75
2022/10/17 04:35:21;;;;;;;39.50;19.42;;;;;;;13.30;100.00;101535.75;5010878;28;20026;-75
2022/10/17 04:37:46;;;;;;;39.20;19.73;;;;;;;13.31;100.00;101535.75;5010313;28;20111;-74
2022/10/17 04:40:12;;;;;;;44.22;20.08;;;;;;;13.28;100.00;101548.91;5011723;28;20050;-75
2022/10/17 04:42:37;;;;;;;35.58;19.83;;;;;;;13.32;100.00;101549.69;5005291;28;20436;-74
2022/10/17 04:45:03;;;;;;;42.55;19.35;;;;;;;13.29;100.00;101560.25;5014212;28;20033;-74
2022/10/17 04:47:28;;;;;;;38.42;18.60;;;;;;;13.29;100.00;101552.38;5011437;28;20026;-75
2022/10/17 04:49:54;;;;;;;36.30;20.25;;;;;;;13.26;100.00;101560.31;5007887;28;20037;-75
2022/10/17 04:52:19;;;;;;;37.00;18.60;;;;;;;13.27;100.00;101556.78;5012374;28;20033;-75
2022/10/17 04:54:44;;;;;;;43.17;20.05;;;;;;;13.29;100.00;101566.34;5010008;28;20041;-75
2022/10/17 04:57:09;;;;;;;42.38;20.02;;;;;;;13.27;100.00;101567.25;5012212;28;20104;-75
2022/10/17 04:59:35;;;;;;;37.80;19.58;;;;;;;13.28;100.00;101564.63;5011384;28;20064;-75
2022/10/17 05:02:00;;;;;;;41.35;21.35;;;;;;;13.30;100.00;101568.03;5013041;28;20029;-75
2022/10/17 05:04:25;;;;;;;39.03;20.00;;;;;;;13.33;100.00;101578.44;5012782;28;20041;-75
2022/10/17 05:06:51;;;;;;;48.10;21.00;;;;;;;13.32;100.00;101578.50;5011776;28;20026;-74
2022/10/17 05:09:16;;;;;;;39.83;20.00;;;;;;;13.29;100.00;101574.19;5011995;28;20464;-75
2022/10/17 05:11:42;;;;;;;40.15;19.40;;;;;;;13.35;100.00;101570.56;5020678;28;20492;-75
2022/10/17 05:14:08;;;;;;;33.72;18.67;;;;;;;13.35;100.00;101552.25;5010525;28;20022;-74
2022/10/17 05:16:34;;;;;;;36.72;19.45;;;;;;;13.42;100.00;101571.28;5010888;28;20028;-75
2022/10/17 05:19:00;;;;;;;41.30;20.23;;;;;;;13.41;100.00;101564.34;5008611;28;20113;-74
2022/10/17 05:21:27;;;;;;;43.28;20.27;;;;;;;13.48;100.00;101569.38;4998044;28;20156;-75
2022/10/17 05:23:53;;;;;;;41.72;19.85;;;;;;;13.49;100.00;101572.88;4999937;28;20389;-74
2022/10/17 05:26:19;;;;;;;41.63;19.73;;;;;;;13.54;100.00;101568.38;5010538;28;20036;-75
2022/10/17 05:28:44;;;;;;;35.60;19.02;;;;;;;13.54;100.00;101568.38;5014060;28;20026;-75
2022/10/17 05:31:10;;;;;;;42.53;19.80;;;;;;;13.71;100.00;101587.16;5013403;28;21594;-75
2022/10/17 05:33:36;;;;;;;46.83;20.90;;;;;;;13.74;100.00;101579.22;5016730;28;20044;-75
2022/10/17 05:36:02;;;;;;;45.22;20.42;;;;;;;13.72;100.00;101582.78;5010302;28;20022;-75
2022/10/17 05:38:27;;;;;;;45.00;20.83;;;;;;;13.69;100.00;101585.47;5014374;28;20037;-74
2022/10/17 05:41:01;;;;;;;35.25;19.58;;;;;;;13.66;100.00;101585.56;5014413;28;20038;-75
2022/10/17 05:43:27;;;;;;;;;;;;;;;13.70;100.00;101595.06;5014295;28;20047;-75
2022/10/17 05:45:53;;;;;;;36.70;18.42;;;;;;;13.74;100.00;101594.97;5011688;28;19925;-75
2022/10/17 05:48:18;;;;;;;37.88;19.38;;;;;;;13.78;100.00;101587.88;5011975;28;20026;-74
2022/10/17 05:50:43;;;;;;;39.28;19.23;;;;;;;13.78;100.00;101588.72;5014317;28;20050;-75
2022/10/17 05:53:09;;;;;;;43.63;20.25;;;;;;;13.86;100.00;101598.16;5017690;28;20022;-75
2022/10/17 05:55:34;;;;;;;36.75;19.30;;;;;;;13.80;100.00;101594.81;5013194;28;20030;-75
2022/10/17 05:58:00;;;;;;;39.78;20.20;;;;;;;13.79;100.00;101597.44;4993320;28;20054;-75
2022/10/17 06:00:25;;;;;;;38.15;19.13;;;;;;;13.75;100.00;101585.31;5013254;28;20026;-75
2022/10/17 06:02:51;;;;;;;36.10;18.88;;;;;;;13.78;100.00;101596.59;5016448;28;20478;-75
2022/10/17 06:05:16;;;;;;;37.55;18.77;;;;;;;13.80;100.00;101609.69;5010128;28;20045;-75
2022/10/17 06:07:42;;;;;;;34.33;18.08;;;;;;;13.80;100.00;101596.56;5012910;28;20026;-75
2022/10/17 06:10:08;;;;;;;33.10;18.48;;;;;;;13.77;100.00;101600.13;5013851;28;20037;-75
2022/10/17 06:12:33;;;;;;;34.22;18.48;;;;;;;13.77;100.00;101594.03;5017545;28;20366;-75
2022/10/17 06:14:59;;;;;;;34.58;18.73;;;;;;;13.84;100.00;101597.34;5007362;28;20113;-75
2022/10/17 06:17:24;;;;;;;37.22;18.83;;;;;;;13.87;100.00;101611.25;5012694;28;20022;-75
2022/10/17 06:19:49;;;;;;;36.47;19.05;;;;;;;13.87;100.00;101605.16;5014301;28;20113;-75
2022/10/17 06:22:15;;;;;;;36.45;18.63;;;;;;;13.86;100.00;101599.00;5013659;28;20029;-75
2022/10/17 06:24:41;;;;;;;33.75;18.42;;;;;;;13.90;100.00;101603.31;5013612;28;20030;-75
2022/10/17 06:27:07;;;;;;;39.53;19.73;;;;;;;13.97;100.00;101604.00;5017347;28;20038;-75
2022/10/17 06:29:32;;;;;;;38.20;18.38;;;;;;;13.97;100.00;101604.00;5016741;28;20029;-75
2022/10/17 06:31:57;;;;;;;33.72;19.02;;;;;;;14.02;100.00;101604.72;5013429;28;20036;-75
2022/10/17 06:34:22;;;;;;;35.55;19.30;;;;;;;14.00;100.00;101602.16;5012878;28;20026;-75
2022/10/17 06:36:48;;;;;;;33.10;19.13;;;;;;;14.02;100.00;101609.97;5016755;28;20054;-74
2022/10/17 06:39:13;;;;;;;36.97;19.40;;;;;;;14.07;100.00;101608.09;5011833;28;20030;-75
2022/10/17 06:41:40;;;;;;;38.22;19.80;;;;;;;14.03;100.00;101616.97;5014842;28;20022;-75
2022/10/17 06:44:09;;;;;;;34.58;19.05;;;;;;;14.11;100.00;101616.75;5015593;28;20030;-75
2022/10/17 06:46:35;;;;;;;43.53;18.98;;;;;;;14.14;100.00;101625.41;5016353;28;20033;-75
2022/10/17 06:49:01;;;;;;;34.20;19.42;;;;;;;14.18;100.00;101624.41;5015276;28;20382;-75
2022/10/17 06:51:26;;;;;;;35.85;19.60;;;;;;;14.25;100.00;101627.75;5011432;28;20057;-75
2022/10/17 06:53:51;;;;;;;41.28;20.52;;;;;;;14.21;100.00;101611.22;5011989;28;20045;-75
2022/10/17 06:56:18;;;;;;;37.72;19.63;;;;;;;14.37;100.00;101632.66;5007073;28;20108;-75
2022/10/17 06:58:44;;;;;;;36.90;20.23;;;;;;;14.44;100.00;101628.13;5013406;28;20026;-75
2022/10/17 07:01:11;;;;;;;40.40;19.70;;;;;;;14.42;100.00;101625.53;5005538;28;20026;-75
2022/10/17 07:03:39;;;;;;;38.40;20.50;;;;;;;14.45;100.00;101620.22;5009480;28;20397;-75
2022/10/17 07:06:04;;;;;;;32.90;19.55;;;;;;;14.50;100.00;101634.09;5012137;28;20119;-74
2022/10/17 07:08:30;;;;;;;34.67;19.48;;;;;;;14.55;100.00;101636.59;5010913;28;20022;-75
2022/10/17 07:10:56;;;;;;;35.88;18.92;;;;;;;14.55;100.00;101633.97;5010859;28;20124;-75
2022/10/17 07:13:22;;;;;;;33.72;19.67;;;;;;;14.57;100.00;101639.19;5015797;28;20094;-74
2022/10/17 07:15:47;;;;;;;35.55;19.33;;;;;;;14.56;100.00;101638.31;5007984;28;20404;-75
2022/10/17 07:18:13;;;;;;;31.55;18.85;;;;;;;14.56;100.00;101637.47;5012259;28;20021;-76
2022/10/17 07:20:39;;;;;;;31.90;18.15;;;;;;;14.57;100.00;101629.53;5011588;28;20535;-75
2022/10/17 07:23:04;;;;;;;30.02;17.73;;;;;;;14.60;100.00;101646.97;5012345;28;20385;-75
2022/10/17 07:25:30;;;;;;;34.47;16.95;;;;;;;14.54;100.00;101650.59;5008432;28;20022;-75
2022/10/17 07:27:55;;;;;;;29.55;17.15;;;;;;;14.57;100.00;101644.41;5004767;28;20075;-75
2022/10/17 07:30:21;;;;;;;27.60;16.60;;;;;;;14.60;100.00;101663.56;5012898;28;20105;-75
2022/10/17 07:32:46;;;;;;;27.75;16.48;;;;;;;14.57;100.00;101661.03;5011640;28;20485;-75
2022/10/17 07:35:13;;;;;;;28.35;15.68;;;;;;;14.57;100.00;101686.41;5013224;28;20026;-75
2022/10/17 07:37:38;;;;;;;31.40;16.38;;;;;;;14.58;100.00;101702.09;5011790;28;20034;-76
2022/10/17 07:40:06;;;;;;;27.55;16.27;;;;;;;14.58;100.00;101728.34;5013391;28;20369;-75
2022/10/17 07:42:32;;;;;;;27.15;16.10;;;;;;;14.58;100.00;101751.94;5008973;28;20539;-75
2022/10/17 07:44:57;;;;;;;30.02;15.80;;;;;;;14.58;100.00;101751.09;5012028;28;20359;-75
2022/10/17 07:47:23;;;;;;;31.65;15.20;;;;;;;14.57;100.00;101762.50;5010785;28;20034;-75
2022/10/17 07:49:48;;;;;;;26.60;15.30;;;;;;;14.62;100.00;101782.47;5011789;28;20121;-75
2022/10/17 07:52:14;;;;;;;26.02;15.38;;;;;;;14.62;100.00;101795.59;5018719;28;20026;-75
2022/10/17 07:54:40;;;;;;;24.67;15.23;;;;;;;14.62;100.00;101790.34;5011710;28;20077;-75
2022/10/17 07:57:06;;;;;;;26.48;14.57;;;;;;;14.65;100.00;101794.66;5010484;28;20056;-75
2022/10/17 07:59:32;;;;;;;35.30;15.13;;;;;;;14.64;100.00;101798.19;5011571;28;20147;-75
2022/10/17 08:01:58;;;;;;;24.90;14.63;;;;;;;14.68;100.00;101792.84;5009864;28;20577;-75
2022/10/17 08:04:24;;;;;;;25.42;14.77;;;;;;;14.71;100.00;101782.25;5006177;28;20037;-76
2022/10/17 08:06:50;;;;;;;25.27;15.48;;;;;;;14.70;100.00;101784.91;4995637;28;20023;-76
2022/10/17 08:09:15;;;;;;;26.15;15.65;;;;;;;14.82;100.00;101796.88;5009538;28;20091;-76
2022/10/17 08:11:42;;;;;;;27.40;16.60;;;;;;;14.81;100.00;101789.88;5012221;28;20041;-76
2022/10/17 08:14:08;;;;;;;26.58;15.90;;;;;;;14.84;100.00;101808.16;5004512;28;20033;-76
2022/10/17 08:16:33;;;;;;;31.65;16.73;;;;;;;14.83;100.00;101817.81;5000174;28;20364;-75
2022/10/17 08:18:59;;;;;;;34.25;16.60;;;;;;;14.83;100.00;101835.34;5007269;28;20034;-76
2022/10/17 08:21:25;;;;;;;27.08;16.02;;;;;;;14.79;100.00;101854.69;5003592;28;20068;-76
2022/10/17 08:23:50;;;;;;;25.90;16.10;;;;;;;14.80;100.00;101862.50;5011613;28;20065;-77
2022/10/17 08:26:16;;;;;;;26.95;16.20;;;;;;;14.80;100.00;101856.41;5006859;28;20440;-76
2022/10/17 08:28:41;;;;;;;28.42;16.02;;;;;;;14.75;100.00;101848.66;5009524;28;20026;-76
2022/10/17 08:31:10;;;;;;;29.35;15.60;;;;;;;14.81;100.00;101853.72;5011994;28;20593;-77
2022/10/17 08:33:35;;;;;;;24.45;16.15;;;;;;;14.78;100.00;101850.31;5007501;28;20195;-77
2022/10/17 08:36:02;;;;;;;33.05;17.02;;;;;;;14.81;100.00;101861.59;5006406;28;20028;-77
2022/10/17 08:38:29;;;;;;;36.38;17.35;;;;;;;14.82;100.00;101857.25;5011524;28;20029;-77
2022/10/17 08:40:58;;;;;;;30.10;16.40;;;;;;;14.83;100.00;101854.56;5004348;28;20064;-77
2022/10/17 08:43:46;;;;;;;32.75;17.05;;;;;;;14.85;100.00;101865.91;5010599;28;20162;-78
2022/10/17 08:46:11;;;;;;;29.63;17.52;;;;;;;14.86;100.00;101861.50;5009557;28;20041;-77
2022/10/17 08:48:41;;;;;;;29.60;16.63;;;;;;;14.86;100.00;101851.00;5007869;28;20038;-77
2022/10/17 08:51:17;;;;;;;30.50;16.75;;;;;;;14.86;100.00;101858.88;5010983;28;20064;-76
2022/10/17 08:53:53;;;;;;;31.85;17.92;;;;;;;14.92;100.00;101848.22;5009604;28;20042;-77
2022/10/17 08:56:24;;;;;;;35.03;17.48;;;;;;;15.03;100.00;101847.94;5010917;28;20026;-77
2022/10/17 08:58:49;;;;;;;31.50;18.05;;;;;;;15.01;100.00;101844.47;5010307;28;20022;-77
2022/10/17 09:01:33;;;;;;;33.05;18.50;;;;;;;15.04;100.00;101847.91;5012619;28;20099;-76
2022/10/17 09:04:10;;;;;;;;;;;;;;;15.07;100.00;101852.22;5005779;28;20026;-77
2022/10/17 09:06:42;;;;;;;30.50;17.30;;;;;;;15.08;100.00;101862.69;5009260;28;20008;-76
2022/10/17 09:09:10;;;;;;;34.67;18.37;;;;;;;15.03;100.00;101875.06;4999604;28;20488;-76
2022/10/17 09:11:45;;;;;;;31.80;17.83;;;;;;;15.01;100.00;101887.38;5014979;28;20527;-77
2022/10/17 09:14:29;;;;;;;35.00;18.20;;;;;;;14.98;100.00;101901.44;5007779;28;20041;-76
2022/10/17 09:17:34;;;;;;;34.95;18.52;;;;;;;14.97;100.00;101906.72;5014866;28;20033;-77
2022/10/17 09:20:02;;;;;;;37.47;17.33;;;;;;;14.95;100.00;101934.81;4979994;28;20084;-81
2022/10/17 09:22:36;;;;;;;37.95;18.27;;;;;;;14.95;100.00;101919.03;5014948;28;20037;-80
2022/10/17 09:25:05;;;;;;;38.50;19.08;;;;;;;14.93;100.00;101916.44;5006261;28;20030;-79
2022/10/17 09:27:47;;;;;;;37.35;19.83;;;;;;;14.93;100.00;101878.81;5011849;28;20026;-78
2022/10/17 09:30:32;;;;;;;47.92;19.45;;;;;;;14.95;100.00;101835.03;5013072;28;20026;-81
2022/10/17 09:32:58;;;;;;;42.58;19.40;;;;;;;15.02;100.00;101815.56;5014521;28;20480;-80
2022/10/17 09:35:26;;;;;;;53.03;21.60;;;;;;;15.11;100.00;101820.59;5019200;28;20029;-80
2022/10/17 09:37:52;;;;;;;43.60;21.10;;;;;;;15.22;100.00;101830.78;5019190;28;20026;-79
2022/10/17 09:40:25;;;;;;;48.63;21.48;;;;;;;15.33;100.00;101856.75;5005311;28;20018;-79
2022/10/17 09:42:50;;;;;;;42.60;20.35;;;;;;;15.32;100.00;101861.16;5015390;28;20055;-81
2022/10/17 09:45:29;;;;;;;44.63;20.33;;;;;;;15.32;100.00;101878.69;5008691;28;20449;-77
2022/10/17 09:48:09;;;;;;;36.17;19.40;;;;;;;15.35;100.00;101883.88;5009586;28;20026;-76
2022/10/17 09:50:35;;;;;;;48.25;20.48;;;;;;;15.33;100.00;101877.78;5013782;28;20126;-76
2022/10/17 09:53:13;;;;;;;41.03;20.50;;;;;;;15.35;100.00;101868.09;5013671;28;20112;-76
2022/10/17 09:55:42;;;;;;;44.25;20.77;;;;;;;15.44;100.00;101860.84;5010147;28;20014;-77
2022/10/17 09:58:09;;;;;;;40.08;20.33;;;;;;;15.50;100.00;101854.56;5011149;28;20049;-77
2022/10/17 10:00:41;;;;;;;39.60;20.88;;;;;;;15.58;100.00;101849.94;5014358;28;20084;-76
2022/10/17 10:03:26;;;;;;;65.00;22.35;;;;;;;15.61;100.00;101846.38;5014119;28;20030;-76
2022/10/17 10:06:11;;;;;;;42.85;21.42;;;;;;;15.61;100.00;101851.63;5011764;28;20040;-77
2022/10/17 10:08:48;;;;;;;46.58;21.25;;;;;;;15.60;100.00;101858.66;5004763;28;20026;-77
2022/10/17 10:11:14;;;;;;;38.05;20.95;;;;;;;15.56;100.00;101867.50;5010885;28;20057;-76
2022/10/17 10:13:40;;;;;;;37.97;19.75;;;;;;;15.50;100.00;101880.84;5001401;28;20120;-77
2022/10/17 10:16:15;;;;;;;30.35;18.17;;;;;;;15.49;100.00;101880.88;5010213;28;20044;-76
2022/10/17 10:18:41;;;;;;;29.08;17.25;;;;;;;15.44;100.00;101881.88;5013559;28;20087;-76
2022/10/17 10:21:11;;;;;;;32.42;18.00;;;;;;;15.45;100.00;101903.75;5009552;28;20133;-76
2022/10/17 10:24:08;;;;;;;33.70;17.92;;;;;;;15.53;100.00;101911.41;5013191;28;20036;-76
2022/10/17 10:26:42;;;;;;;31.60;17.17;;;;;;;15.56;100.00;101920.06;5008860;28;20042;-76
2022/10/17 10:29:22;;;;;;;25.65;15.98;;;;;;;15.58;100.00;101925.28;5008349;28;20022;-76
2022/10/17 10:31:48;;;;;;;41.17;16.60;;;;;;;15.64;100.00;101910.22;5012446;28;20033;-76
2022/10/17 10:34:26;;;;;;;27.95;15.57;;;;;;;15.72;100.00;101917.06;5006332;28;20049;-76
2022/10/17 10:37:00;;;;;;;34.97;16.13;;;;;;;15.82;100.00;101922.00;5004233;28;20046;-76
2022/10/17 10:39:33;;;;;;;24.30;15.52;;;;;;;15.87;100.00;101933.28;5005135;28;20029;-76
2022/10/17 10:42:00;;;;;;;;;;;;;;;15.93;100.00;101947.16;5012570;28;20064;-76
2022/10/17 10:44:28;;;;;;;26.92;14.43;;;;;;;15.86;100.00;101964.88;5013679;28;20419;-76
2022/10/17 10:47:15;;;;;;;29.00;14.52;;;;;;;15.84;100.00;101977.19;5007307;28;20022;-76
2022/10/17 10:49:42;;;;;;;25.80;13.38;;;;;;;15.80;100.00;101986.09;5005114;28;20470;-77
2022/10/17 10:52:14;;;;;;;26.52;14.93;;;;;;;15.71;100.00;101987.19;5012843;28;20042;-76
2022/10/17 10:54:53;;;;;;;24.58;12.75;;;;;;;15.68;100.00;101977.59;5013312;28;20122;-76
2022/10/17 10:57:22;;;;;;;37.78;13.88;;;;;;;15.72;100.00;101974.91;5013006;28;20125;-76
2022/10/17 11:00:20;;;;;;;25.35;13.55;;;;;;;15.72;100.00;101970.50;5014018;28;20061;-76
2022/10/17 11:03:00;;;;;;;21.73;13.27;;;;;;;15.68;100.00;101967.09;5001497;28;20528;-76
2022/10/17 11:05:52;;;;;;;25.90;13.95;;;;;;;15.74;100.00;101975.72;5012826;28;20026;-76
2022/10/17 11:08:42;;;;;;;27.08;14.45;;;;;;;15.77;100.00;101983.53;4998586;28;20040;-76
2022/10/17 11:11:22;;;;;;;37.42;14.82;;;;;;;15.82;100.00;101982.47;5004791;28;20113;-76
2022/10/17 11:13:57;;;;;;;36.25;15.45;;;;;;;15.82;100.00;101982.47;5009008;28;20096;-76